Jordan, MN

12:58 AM CDT on September 16, 2014 (GMT -0500)
Minneapolis-Saint Paul International | Change Station
CLOSE
Current Station
Airport
Location: Minneapolis,
Elevation: 837 ft
Nearby Weather Stations

Elev 837 ft 44.89 °N, 93.23 °W | Updated 1 hour ago

Clear
Clear
49 °F
Feels Like 49 °F
N
0
Wind Variable Wind from North

Today
High -- | Low -- °F
--% Chance of Precip.
Yesterday
High -- | Low -- °F
Precip. -- in
6:54 AM 7:23 PM
Waning Gibbous, 48% visible
Pressure 30.23 in
Visibility 10.0 miles
Clouds Clear
Dew Point 42 °F
Humidity 77%
Rainfall 0.06 in
Snow Depth Not available.
UV 0 out of 12
Pollen 4.40 out of 12
Ozone Good
PM2.5 Good
Flu Activity Not available.
METAR KMSP 160453Z 00000KT 10SM CLR 09/06 A3022 RMK AO2 SLP235 T00940056

More Conditions Fewer Conditions

Pressure 30.23 in
Visibility 10.0 miles
Clouds Clear
Dew Point 42 °F
Humidity 77%
Rainfall 0.06 in
Snow Depth Not available.
UV 0 out of 12
Pollen 4.40 out of 12
Ozone Good
PM2.5 Good
Flu Activity Not available.
METAR KMSP 160453Z 00000KT 10SM CLR 09/06 A3022 RMK AO2 SLP235 T00940056

More Conditions Fewer Conditions

10-Day Weather Forecast

Almanac

Astronomy

Sep. 16, 2014 Rise Set
Actual Time 6:54 AM CDT 7:23 PM CDT
Civil Twilight 6:25 AM CDT 7:52 PM CDT
Nautical Twilight 5:50 AM CDT 8:27 PM CDT
Astronomical Twilight 5:14 AM CDT 9:02 PM CDT
Moon No Moon Rise 2:58 PM CDT
Length of Visible Light 13h 27m
Length of Day
12h 28m
Tomorrow will be 3m 5s shorter.
Waning Gibbous, 48% of the Moon is Illuminated
Today
Waning Gibbous
Sep 24
New
Oct 1
First Quarter
Oct 8
Full
Oct 15
Last Quarter

Today's Extremes

State Highs State Lows

Community

WunderPhotos

Upload Photos

1,753,702 photos uploaded!

Nearby

Air Quality

  Air Quality AQ Index Pollutant
Yesterday Good
OZONE
Yesterday Good
PM2.5
Current Good
PM2.5
Current Good
OZONE
Monday Good
OZONE
Monday Good
PM2.5
Tuesday Good
OZONE
Tuesday Good
PM2.5
Wednesday Good
PM2.5
Wednesday Good
OZONE
Thursday Moderate
PM2.5
Thursday Good
OZONE
Friday Moderate
PM2.5
Friday Good
OZONE
Saturday Good
OZONE
Saturday Good
PM2.5

Snow Depth

Station Depth Elevation
No new snow has been reported.

Earthquake Activity

City Distance Mag. Time & Date
No recent earthquake activity has been reported nearby.
Minimum magnitude displayed is 2.5.

Coastal Water Temperatures

Place Temperature
No Stations Reporting

Nearby Weather Stations